Time;durP1;ratioP1;P1;durP2;ratioP2;P2;SDS_P1;SDS_P2;PMS_P1;PMS_P2;Temp;Humidity;BMP_temperature;BMP_pressure;BME280_temperature;BME280_humidity;BME280_pressure;Samples;Min_cycle;Max_cycle;Signal;HPM_P1;HPM_P2
2024/03/12 00:01:08;;;;;;;6.28;2.17;;;;;;;;;;5069684;28;20032;-69
2024/03/12 00:03:42;;;;;;;5.35;2.10;;;;;;;;;;5070069;28;20882;-69
2024/03/12 00:06:09;;;;;;;3.45;2.10;;;;;;;;;;5070404;28;20028;-69
2024/03/12 00:08:39;;;;;;;3.70;2.15;;;;;;;;;;5074482;28;20041;-69
2024/03/12 00:11:05;;;;;;;5.28;2.30;;;;;;;;;;5066113;28;20043;-68
2024/03/12 00:13:31;;;;;;;2.70;2.10;;;;;;;;;;5071740;28;20048;-69
2024/03/12 00:16:00;;;;;;;3.13;2.03;;;;;;;;;;5066380;28;20532;-69
2024/03/12 00:18:26;;;;;;;5.30;2.72;;;;;;;;;;5078416;28;20058;-69
2024/03/12 00:20:53;;;;;;;4.32;2.60;;;;;;;;;;5062435;28;20397;-68
2024/03/12 00:23:20;;;;;;;2.97;2.00;;;;;;;;;;5071624;28;20041;-67
2024/03/12 00:25:46;;;;;;;3.38;2.38;;;;;;;;;;5069803;28;20049;-68
2024/03/12 00:28:12;;;;;;;3.65;2.03;;;;;;;;;;5075314;28;20051;-69
2024/03/12 00:30:40;;;;;;;3.72;2.38;;;;;;;;;;5072769;28;20155;-70
2024/03/12 00:33:07;;;;;;;2.53;2.10;;;;;;;;;;5071059;28;20049;-69
2024/03/12 00:35:35;;;;;;;3.38;2.47;;;;;;;;;;5070085;28;20048;-68
2024/03/12 00:38:03;;;;;;;4.40;2.45;;;;;;;;;;5074633;28;20044;-69
2024/03/12 00:40:39;;;;;;;5.28;2.38;;;;;;;;;;5078388;28;20032;-69
2024/03/12 00:43:08;;;;;;;4.28;2.45;;;;;;;;;;5066377;28;20045;-69
2024/03/12 00:45:38;;;;;;;2.72;2.13;;;;;;;;;;5062316;28;20060;-69
2024/03/12 00:48:09;;;;;;;2.75;2.20;;;;;;;;;;5071637;28;20048;-69
2024/03/12 00:50:36;;;;;;;3.70;2.20;;;;;;;;;;5073043;28;20421;-68
2024/03/12 00:53:03;;;;;;;4.50;2.28;;;;;;;;;;5072305;28;20135;-69
2024/03/12 00:55:29;;;;;;;2.78;2.20;;;;;;;;;;5078439;28;20497;-68
2024/03/12 00:57:56;;;;;;;2.67;1.92;;;;;;;;;;5069638;28;20047;-69
2024/03/12 01:00:28;;;;;;;3.35;1.55;;;;;;;;;;5075737;28;20091;-69
2024/03/12 01:02:58;;;;;;;3.33;2.00;;;;;;;;;;5073631;28;20071;-69
2024/03/12 01:05:25;;;;;;;2.85;2.05;;;;;;;;;;5071891;28;20045;-69
2024/03/12 01:07:58;;;;;;;2.60;1.90;;;;;;;;;;5051725;28;20047;-69
2024/03/12 01:10:26;;;;;;;3.35;1.77;;;;;;;;;;5069722;28;20040;-69
2024/03/12 01:12:54;;;;;;;4.15;2.22;;;;;;;;;;5072620;28;20070;-69
2024/03/12 01:15:23;;;;;;;3.50;2.25;;;;;;;;;;5066872;28;20074;-68
2024/03/12 01:17:51;;;;;;;2.90;2.08;;;;;;;;;;5072299;28;20032;-69
2024/03/12 01:20:20;;;;;;;3.80;2.30;;;;;;;;;;5075362;28;20465;-69
2024/03/12 01:22:50;;;;;;;2.58;1.80;;;;;;;;;;5067395;28;20037;-69
2024/03/12 01:25:16;;;;;;;3.50;2.58;;;;;;;;;;5069729;28;20035;-68
2024/03/12 01:27:42;;;;;;;2.72;2.20;;;;;;;;;;5070419;28;20037;-69
2024/03/12 01:30:16;;;;;;;3.22;2.30;;;;;;;;;;5069096;28;20123;-68
2024/03/12 01:32:44;;;;;;;3.42;2.00;;;;;;;;;;5067900;28;20060;-68
2024/03/12 01:35:12;;;;;;;3.53;2.25;;;;;;;;;;5073946;28;20039;-69
2024/03/12 01:37:42;;;;;;;2.58;2.10;;;;;;;;;;5067021;28;20045;-69
2024/03/12 01:40:22;;;;;;;4.95;2.33;;;;;;;;;;5066726;28;20036;-68
2024/03/12 01:42:51;;;;;;;4.55;2.38;;;;;;;;;;5070544;28;20044;-69
2024/03/12 01:45:20;;;;;;;2.60;2.20;;;;;;;;;;5066295;28;20040;-69
2024/03/12 01:47:47;;;;;;;3.05;2.40;;;;;;;;;;5073108;28;20041;-69
2024/03/12 01:50:15;;;;;;;2.58;2.03;;;;;;;;;;5068124;28;20039;-69
2024/03/12 01:52:43;;;;;;;2.80;2.20;;;;;;;;;;5076378;28;20048;-69
2024/03/12 01:55:18;;;;;;;4.35;2.22;;;;;;;;;;5071106;28;20052;-69
2024/03/12 01:57:48;;;;;;;2.50;2.08;;;;;;;;;;5071045;28;20044;-68
2024/03/12 02:00:15;;;;;;;3.10;2.10;;;;;;;;;;5072824;28;20044;-68
2024/03/12 02:02:43;;;;;;;2.85;2.30;;;;;;;;;;5059737;28;20045;-69
2024/03/12 02:05:12;;;;;;;3.13;2.00;;;;;;;;;;5065523;28;20032;-68
2024/03/12 02:07:46;;;;;;;2.35;2.15;;;;;;;;;;5069246;28;20120;-69
2024/03/12 02:10:14;;;;;;;2.75;1.90;;;;;;;;;;5069676;28;20048;-70
2024/03/12 02:12:43;;;;;;;3.40;2.20;;;;;;;;;;5072180;28;20567;-69
2024/03/12 02:15:10;;;;;;;4.40;2.20;;;;;;;;;;5072592;28;20051;-69
2024/03/12 02:17:39;;;;;;;3.28;2.20;;;;;;;;;;5067071;28;20410;-70
2024/03/12 02:20:09;;;;;;;4.45;2.20;;;;;;;;;;5070560;28;20477;-70
2024/03/12 02:22:38;;;;;;;;;;;;;;;;;;5072040;28;20049;-69
2024/03/12 02:25:06;;;;;;;3.80;1.95;;;;;;;;;;5069152;28;19912;-69
2024/03/12 02:27:32;;;;;;;3.35;2.20;;;;;;;;;;5064028;28;20044;-67
2024/03/12 02:29:58;;;;;;;2.92;1.90;;;;;;;;;;5072876;28;20051;-68
2024/03/12 02:32:24;;;;;;;2.97;1.95;;;;;;;;;;5075717;28;20047;-68
2024/03/12 02:34:51;;;;;;;2.65;1.92;;;;;;;;;;5067983;28;20044;-69
2024/03/12 02:37:21;;;;;;;2.58;2.00;;;;;;;;;;5068407;28;20406;-68
2024/03/12 02:39:47;;;;;;;;;;;;;;;;;;5066078;28;20045;-69
2024/03/12 02:42:13;;;;;;;2.45;2.20;;;;;;;;;;5064146;28;19916;-69
2024/03/12 02:44:39;;;;;;;2.90;2.42;;;;;;;;;;5071916;28;20033;-68
2024/03/12 02:47:05;;;;;;;2.58;2.15;;;;;;;;;;5070315;28;20123;-69
2024/03/12 02:49:31;;;;;;;4.07;2.40;;;;;;;;;;5070463;28;20236;-69
2024/03/12 02:51:57;;;;;;;2.35;1.92;;;;;;;;;;5081086;28;20047;-69
2024/03/12 02:54:27;;;;;;;2.22;2.03;;;;;;;;;;5074180;28;20551;-67
2024/03/12 02:56:56;;;;;;;4.43;2.45;;;;;;;;;;5071934;28;20048;-68
2024/03/12 02:59:27;;;;;;;6.77;2.63;;;;;;;;;;5068903;28;20462;-68
2024/03/12 03:01:56;;;;;;;4.55;2.63;;;;;;;;;;5066506;28;20453;-68
2024/03/12 03:04:23;;;;;;;2.40;1.85;;;;;;;;;;5064486;28;20079;-68
2024/03/12 03:06:52;;;;;;;2.85;2.10;;;;;;;;;;5070037;28;20049;-68
2024/03/12 03:09:20;;;;;;;3.30;1.80;;;;;;;;;;5069919;28;20048;-69
2024/03/12 03:11:46;;;;;;;2.97;1.83;;;;;;;;;;5068889;28;20033;-69
2024/03/12 03:14:12;;;;;;;3.17;1.90;;;;;;;;;;5068054;28;20504;-69
2024/03/12 03:16:38;;;;;;;4.68;2.00;;;;;;;;;;5066741;28;20041;-68
2024/03/12 03:19:05;;;;;;;2.95;1.98;;;;;;;;;;5070793;28;20040;-69
2024/03/12 03:21:31;;;;;;;2.33;1.88;;;;;;;;;;5070315;28;20136;-70
2024/03/12 03:23:58;;;;;;;2.65;2.08;;;;;;;;;;5067558;28;20454;-69
2024/03/12 03:26:24;;;;;;;3.83;2.33;;;;;;;;;;5075087;28;20498;-67
2024/03/12 03:28:50;;;;;;;2.60;2.00;;;;;;;;;;5066751;28;20055;-69
2024/03/12 03:31:16;;;;;;;3.17;2.05;;;;;;;;;;5071673;28;20494;-69
2024/03/12 03:33:45;;;;;;;5.20;3.28;;;;;;;;;;5064776;28;20059;-69
2024/03/12 03:36:13;;;;;;;6.50;2.85;;;;;;;;;;5066956;28;20063;-69
2024/03/12 03:38:43;;;;;;;3.40;2.53;;;;;;;;;;5062458;28;20033;-69
2024/03/12 03:41:09;;;;;;;2.83;2.08;;;;;;;;;;5073733;28;20032;-70
2024/03/12 03:43:36;;;;;;;4.60;1.75;;;;;;;;;;5062593;28;20059;-69
2024/03/12 03:46:05;;;;;;;3.15;1.80;;;;;;;;;;5059708;28;20020;-69
2024/03/12 03:48:31;;;;;;;3.28;2.25;;;;;;;;;;5066424;28;20497;-70
2024/03/12 03:50:57;;;;;;;4.70;2.13;;;;;;;;;;5069458;28;20508;-69
2024/03/12 03:53:23;;;;;;;1.85;1.73;;;;;;;;;;5074065;28;20059;-69
2024/03/12 03:55:50;;;;;;;3.75;1.80;;;;;;;;;;5067705;28;20377;-69
2024/03/12 03:58:18;;;;;;;3.78;2.00;;;;;;;;;;5066077;28;20421;-69
2024/03/12 04:00:44;;;;;;;3.25;2.38;;;;;;;;;;5065056;28;20044;-69
2024/03/12 04:03:10;;;;;;;4.78;2.40;;;;;;;;;;5071813;28;20028;-69
2024/03/12 04:05:36;;;;;;;2.25;1.50;;;;;;;;;;5057686;28;20041;-68
2024/03/12 04:08:02;;;;;;;3.72;1.92;;;;;;;;;;5075562;28;20059;-69
2024/03/12 04:10:30;;;;;;;3.50;1.70;;;;;;;;;;5066004;28;20098;-69
2024/03/12 04:12:56;;;;;;;3.47;1.55;;;;;;;;;;5065291;28;20163;-69
2024/03/12 04:15:22;;;;;;;3.40;2.03;;;;;;;;;;5071193;28;20055;-69
2024/03/12 04:17:49;;;;;;;3.92;2.35;;;;;;;;;;5066712;28;20028;-69
2024/03/12 04:20:16;;;;;;;2.03;1.67;;;;;;;;;;5071618;28;20031;-69
2024/03/12 04:22:44;;;;;;;7.35;3.65;;;;;;;;;;5072431;28;20040;-69
2024/03/12 04:25:12;;;;;;;3.67;2.10;;;;;;;;;;5071865;28;20032;-69
2024/03/12 04:27:38;;;;;;;2.92;1.88;;;;;;;;;;5070946;28;20363;-69
2024/03/12 04:30:11;;;;;;;3.45;1.65;;;;;;;;;;5070303;28;20405;-68
2024/03/12 04:32:40;;;;;;;3.42;1.67;;;;;;;;;;5066834;28;20049;-68
2024/03/12 04:35:12;;;;;;;3.33;1.80;;;;;;;;;;5067892;28;20112;-70
2024/03/12 04:37:38;;;;;;;3.63;1.98;;;;;;;;;;5067186;28;20474;-68
2024/03/12 04:40:06;;;;;;;2.95;2.10;;;;;;;;;;5075236;28;20140;-68
2024/03/12 04:42:36;;;;;;;4.93;3.08;;;;;;;;;;5073070;28;20037;-68
2024/03/12 04:45:04;;;;;;;3.83;2.10;;;;;;;;;;5069523;28;20047;-72
2024/03/12 04:47:32;;;;;;;2.85;1.85;;;;;;;;;;5074901;28;20421;-69
2024/03/12 04:49:58;;;;;;;3.10;1.95;;;;;;;;;;5078502;28;20055;-68
2024/03/12 04:52:25;;;;;;;2.67;1.55;;;;;;;;;;5071804;28;20063;-69
2024/03/12 04:54:51;;;;;;;6.00;2.33;;;;;;;;;;5072807;28;20056;-68
2024/03/12 04:57:18;;;;;;;3.90;2.42;;;;;;;;;;5076629;28;20450;-69
2024/03/12 04:59:44;;;;;;;3.70;2.50;;;;;;;;;;5071720;28;20074;-68
2024/03/12 05:02:10;;;;;;;6.75;3.22;;;;;;;;;;5077026;28;20393;-69
2024/03/12 05:04:38;;;;;;;5.72;2.65;;;;;;;;;;5065294;28;20052;-68
2024/03/12 05:07:04;;;;;;;4.07;2.13;;;;;;;;;;5077807;28;20044;-69
2024/03/12 05:09:30;;;;;;;4.30;2.10;;;;;;;;;;5068231;28;20044;-69
2024/03/12 05:11:56;;;;;;;4.00;1.90;;;;;;;;;;5074753;28;20045;-68
2024/03/12 05:14:23;;;;;;;3.53;2.20;;;;;;;;;;5072923;28;20478;-68
2024/03/12 05:16:50;;;;;;;2.50;2.03;;;;;;;;;;5072071;28;20047;-68
2024/03/12 05:19:17;;;;;;;3.30;1.92;;;;;;;;;;5069418;28;20047;-69
2024/03/12 05:21:43;;;;;;;3.05;1.92;;;;;;;;;;5065912;28;20371;-68
2024/03/12 05:24:09;;;;;;;1.77;1.50;;;;;;;;;;5068089;28;20031;-68
2024/03/12 05:26:43;;;;;;;6.07;2.55;;;;;;;;;;5067906;28;20061;-69
2024/03/12 05:29:13;;;;;;;6.85;2.17;;;;;;;;;;5064923;28;20056;-68
2024/03/12 05:31:39;;;;;;;4.72;2.33;;;;;;;;;;5075176;28;20036;-68
2024/03/12 05:34:29;;;;;;;13.05;5.97;;;;;;;;;;5070405;28;20048;-68
2024/03/12 05:37:04;;;;;;;;;;;;;;;;;;5068438;28;20493;-68
2024/03/12 05:39:47;;;;;;;9.77;4.25;;;;;;;;;;5069453;28;19919;-69
2024/03/12 05:50:32;;;;;;;11.48;4.90;;;;;;;;;;5078664;28;20413;-68
2024/03/12 05:52:58;;;;;;;9.25;4.30;;;;;;;;;;5072150;28;20059;-68
2024/03/12 05:55:25;;;;;;;7.80;3.60;;;;;;;;;;5066047;28;20048;-68
2024/03/12 05:57:51;;;;;;;5.30;3.00;;;;;;;;;;5082309;22;20052;-65
2024/03/12 06:00:17;;;;;;;2.85;2.03;;;;;;;;;;5066152;28;20036;-65
2024/03/12 06:02:44;;;;;;;2.22;1.90;;;;;;;;;;5070310;28;20044;-65
2024/03/12 06:05:13;;;;;;;2.65;2.30;;;;;;;;;;5080093;28;20040;-65
2024/03/12 06:07:44;;;;;;;4.47;2.75;;;;;;;;;;5058687;28;20056;-65
2024/03/12 06:10:11;;;;;;;27.08;10.82;;;;;;;;;;5071616;28;20032;-65
2024/03/12 06:12:38;;;;;;;12.48;5.72;;;;;;;;;;5064107;28;20506;-65
2024/03/12 06:15:07;;;;;;;5.53;2.88;;;;;;;;;;5068254;28;20041;-64
2024/03/12 06:17:33;;;;;;;3.83;2.85;;;;;;;;;;5063658;28;20049;-65
2024/03/12 06:19:59;;;;;;;2.65;2.33;;;;;;;;;;5062589;28;20045;-66
2024/03/12 06:22:26;;;;;;;3.58;2.42;;;;;;;;;;5063168;28;20466;-65
2024/03/12 06:24:53;;;;;;;3.83;2.55;;;;;;;;;;5063752;28;20032;-64
2024/03/12 06:27:19;;;;;;;2.78;2.10;;;;;;;;;;5061610;28;20036;-65
2024/03/12 06:29:49;;;;;;;5.40;2.63;;;;;;;;;;5064863;28;20037;-65
2024/03/12 06:32:17;;;;;;;4.25;1.98;;;;;;;;;;5068858;28;20118;-65
2024/03/12 06:34:44;;;;;;;3.55;2.60;;;;;;;;;;5061717;28;20441;-65
2024/03/12 06:37:11;;;;;;;4.93;2.78;;;;;;;;;;5059945;28;20040;-65
2024/03/12 06:39:40;;;;;;;5.53;2.75;;;;;;;;;;5063594;28;20048;-65
2024/03/12 06:42:12;;;;;;;;;;;;;;;;;;5069486;28;20036;-67
2024/03/12 06:44:42;;;;;;;5.28;2.10;;;;;;;;;;5074752;28;19912;-66
2024/03/12 06:47:09;;;;;;;4.82;2.45;;;;;;;;;;5067951;28;20041;-65
2024/03/12 06:49:44;;;;;;;5.53;2.70;;;;;;;;;;5058980;28;20410;-65
2024/03/12 06:52:11;;;;;;;3.45;2.63;;;;;;;;;;5065699;28;20497;-66
2024/03/12 06:54:37;;;;;;;4.65;2.55;;;;;;;;;;5062044;28;20051;-65
2024/03/12 06:57:04;;;;;;;4.38;2.50;;;;;;;;;;5058627;28;20045;-66
2024/03/12 06:59:33;;;;;;;4.47;3.30;;;;;;;;;;5064269;28;20413;-65
2024/03/12 07:02:05;;;;;;;4.20;2.97;;;;;;;;;;5064695;28;20071;-68
2024/03/12 07:04:47;;;;;;;4.63;2.60;;;;;;;;;;5061553;28;20413;-66
2024/03/12 07:07:18;;;;;;;3.08;2.17;;;;;;;;;;5060708;28;20415;-65
2024/03/12 07:09:45;;;;;;;3.10;2.38;;;;;;;;;;5069479;28;20045;-66
2024/03/12 07:12:16;;;;;;;3.63;2.30;;;;;;;;;;5068151;28;20413;-66
2024/03/12 07:14:43;;;;;;;2.40;1.95;;;;;;;;;;5062590;28;20048;-64
2024/03/12 07:17:10;;;;;;;5.53;2.60;;;;;;;;;;5069463;28;20047;-65
2024/03/12 07:19:39;;;;;;;3.38;2.53;;;;;;;;;;5057570;28;20063;-65
2024/03/12 07:22:09;;;;;;;3.88;2.53;;;;;;;;;;5069445;28;20044;-65
2024/03/12 07:24:35;;;;;;;5.72;2.45;;;;;;;;;;5058756;28;20045;-66
2024/03/12 07:27:03;;;;;;;3.00;2.30;;;;;;;;;;5062314;28;20036;-66
2024/03/12 07:29:33;;;;;;;4.88;2.13;;;;;;;;;;5058000;28;20418;-66
2024/03/12 07:32:03;;;;;;;3.88;2.22;;;;;;;;;;5062319;28;20576;-66
2024/03/12 07:34:32;;;;;;;5.93;2.20;;;;;;;;;;5060519;28;20111;-65
2024/03/12 07:36:59;;;;;;;2.60;2.08;;;;;;;;;;5058177;28;20408;-65
2024/03/12 07:39:30;;;;;;;2.75;2.08;;;;;;;;;;5055596;28;20041;-66
2024/03/12 07:42:06;;;;;;;3.03;2.30;;;;;;;;;;5066823;28;20127;-67
2024/03/12 07:44:33;;;;;;;4.32;2.15;;;;;;;;;;5062065;28;20048;-66
2024/03/12 07:46:59;;;;;;;5.43;2.20;;;;;;;;;;5063978;28;20047;-65
2024/03/12 07:49:26;;;;;;;3.13;2.10;;;;;;;;;;5054538;28;20044;-65
2024/03/12 07:51:52;;;;;;;3.33;2.25;;;;;;;;;;5065492;28;20040;-67
2024/03/12 07:54:19;;;;;;;3.83;2.33;;;;;;;;;;5066182;28;20041;-64
2024/03/12 07:56:49;;;;;;;4.07;2.20;;;;;;;;;;5070627;28;20033;-65
2024/03/12 07:59:21;;;;;;;3.40;2.28;;;;;;;;;;5067996;28;20036;-66
2024/03/12 08:01:53;;;;;;;3.78;2.30;;;;;;;;;;5066208;28;20028;-65
2024/03/12 08:04:22;;;;;;;3.03;2.42;;;;;;;;;;5067930;28;20056;-66
2024/03/12 08:06:48;;;;;;;3.22;2.35;;;;;;;;;;5068338;28;20041;-65
2024/03/12 08:09:14;;;;;;;2.78;1.77;;;;;;;;;;5073215;28;20369;-66
2024/03/12 08:11:41;;;;;;;2.95;2.03;;;;;;;;;;5068940;28;20043;-65
2024/03/12 08:14:07;;;;;;;2.63;2.03;;;;;;;;;;5067904;28;20037;-65
2024/03/12 08:16:33;;;;;;;3.25;1.80;;;;;;;;;;5066648;28;20049;-65
2024/03/12 08:18:59;;;;;;;2.63;2.20;;;;;;;;;;5063537;28;20508;-66
2024/03/12 08:21:28;;;;;;;2.33;1.70;;;;;;;;;;5067512;28;20421;-66
2024/03/12 08:23:58;;;;;;;2.70;1.85;;;;;;;;;;5068319;28;20055;-66
2024/03/12 08:26:28;;;;;;;3.25;1.80;;;;;;;;;;5065933;28;20071;-66
2024/03/12 08:28:55;;;;;;;;;;;;;;;;;;5073605;28;20059;-65
2024/03/12 08:31:22;;;;;;;3.15;1.80;;;;;;;;;;5062617;28;19923;-65
2024/03/12 08:33:49;;;;;;;3.13;1.50;;;;;;;;;;5064676;28;20040;-65
2024/03/12 08:36:15;;;;;;;3.75;1.80;;;;;;;;;;5061775;28;20048;-65
2024/03/12 08:38:41;;;;;;;2.00;1.52;;;;;;;;;;5064058;28;20059;-65
2024/03/12 08:41:10;;;;;;;3.22;1.80;;;;;;;;;;5062888;28;20028;-65
2024/03/12 08:43:37;;;;;;;4.15;2.05;;;;;;;;;;5065557;28;20059;-67
2024/03/12 08:46:06;;;;;;;2.85;1.92;;;;;;;;;;5059158;28;20025;-65
2024/03/12 08:48:35;;;;;;;2.00;1.73;;;;;;;;;;5055173;28;20057;-67
2024/03/12 08:51:05;;;;;;;1.73;1.30;;;;;;;;;;5056897;28;20041;-65
2024/03/12 08:53:33;;;;;;;3.80;1.63;;;;;;;;;;5060918;28;20048;-66
2024/03/12 08:56:00;;;;;;;5.18;1.52;;;;;;;;;;5067668;28;20416;-65
2024/03/12 08:58:26;;;;;;;1.73;1.20;;;;;;;;;;5069312;28;20040;-64
2024/03/12 09:00:53;;;;;;;2.67;1.50;;;;;;;;;;5069005;28;20171;-65
2024/03/12 09:03:19;;;;;;;6.43;1.77;;;;;;;;;;5069228;28;20044;-65
2024/03/12 09:05:45;;;;;;;5.35;1.60;;;;;;;;;;5064196;28;20032;-65
2024/03/12 09:08:11;;;;;;;2.42;1.48;;;;;;;;;;5066281;28;20477;-65
2024/03/12 09:10:37;;;;;;;2.10;1.73;;;;;;;;;;5071390;28;20049;-65
2024/03/12 09:13:04;;;;;;;2.45;1.50;;;;;;;;;;5072316;28;20041;-65
2024/03/12 09:15:31;;;;;;;1.90;1.70;;;;;;;;;;5064226;28;20056;-66
2024/03/12 09:18:06;;;;;;;2.47;1.40;;;;;;;;;;5066313;28;20042;-65
2024/03/12 09:20:36;;;;;;;1.83;1.45;;;;;;;;;;5062510;28;20056;-65
2024/03/12 09:23:03;;;;;;;1.85;1.50;;;;;;;;;;5059531;28;20032;-66
2024/03/12 09:25:32;;;;;;;2.03;1.38;;;;;;;;;;5058334;28;20516;-65
2024/03/12 09:27:58;;;;;;;3.00;1.67;;;;;;;;;;5066097;28;20095;-64
2024/03/12 09:30:25;;;;;;;3.05;1.63;;;;;;;;;;5069140;28;20061;-65
2024/03/12 09:32:52;;;;;;;2.50;1.50;;;;;;;;;;5060810;28;20686;-65
2024/03/12 09:35:18;;;;;;;5.00;1.90;;;;;;;;;;5056172;28;20049;-66
2024/03/12 09:37:45;;;;;;;3.20;2.10;;;;;;;;;;5067118;28;20040;-66
2024/03/12 09:40:13;;;;;;;2.92;2.08;;;;;;;;;;5064369;28;20048;-66
2024/03/12 09:42:44;;;;;;;7.43;2.10;;;;;;;;;;5063090;28;20036;-68
2024/03/12 09:45:11;;;;;;;2.95;2.15;;;;;;;;;;5059837;28;20029;-66
2024/03/12 09:47:39;;;;;;;4.82;2.53;;;;;;;;;;5062053;28;20383;-66
2024/03/12 09:50:10;;;;;;;2.75;2.25;;;;;;;;;;5062659;28;20443;-66
2024/03/12 09:52:40;;;;;;;3.30;1.90;;;;;;;;;;5065381;28;20052;-65
2024/03/12 09:55:10;;;;;;;4.20;2.60;;;;;;;;;;5070144;28;20044;-66
2024/03/12 09:57:37;;;;;;;4.82;3.33;;;;;;;;;;5065342;28;20055;-65
2024/03/12 10:00:06;;;;;;;6.70;3.50;;;;;;;;;;5064778;28;20032;-66
2024/03/12 10:02:34;;;;;;;5.60;3.40;;;;;;;;;;5074302;28;20052;-65
2024/03/12 10:05:01;;;;;;;8.20;2.95;;;;;;;;;;5066180;28;20039;-66
2024/03/12 10:07:27;;;;;;;4.40;2.60;;;;;;;;;;5073571;28;20056;-64
2024/03/12 10:09:54;;;;;;;7.38;2.60;;;;;;;;;;5074326;28;20033;-64
2024/03/12 10:12:20;;;;;;;6.50;3.22;;;;;;;;;;5070951;28;20123;-65
2024/03/12 10:14:46;;;;;;;4.93;2.75;;;;;;;;;;5065159;28;20045;-64
2024/03/12 10:17:14;;;;;;;6.63;3.47;;;;;;;;;;5064536;28;20032;-64
2024/03/12 10:19:47;;;;;;;5.47;3.22;;;;;;;;;;5064104;28;20064;-66
2024/03/12 10:22:21;;;;;;;6.50;3.08;;;;;;;;;;5058957;28;20051;-66
2024/03/12 10:24:51;;;;;;;5.35;3.90;;;;;;;;;;5061409;28;20036;-66
2024/03/12 10:27:18;;;;;;;6.30;3.40;;;;;;;;;;5059865;28;20036;-66
2024/03/12 10:29:44;;;;;;;8.05;2.60;;;;;;;;;;5060449;28;20043;-66
2024/03/12 10:32:21;;;;;;;7.82;3.35;;;;;;;;;;5059804;28;20032;-65
2024/03/12 10:34:48;;;;;;;7.40;3.05;;;;;;;;;;5061073;28;20123;-66
2024/03/12 10:37:29;;;;;;;5.78;3.38;;;;;;;;;;5068816;28;20059;-65
2024/03/12 10:40:16;;;;;;;4.93;3.00;;;;;;;;;;5063375;28;20043;-66
2024/03/12 10:43:01;;;;;;;6.97;3.30;;;;;;;;;;5061545;28;20494;-65
2024/03/12 10:45:30;;;;;;;7.78;3.53;;;;;;;;;;5062592;28;20402;-66
2024/03/12 10:47:58;;;;;;;6.75;3.40;;;;;;;;;;5060121;28;20040;-63
2024/03/12 10:50:25;;;;;;;8.27;3.80;;;;;;;;;;5066231;28;20054;-64
2024/03/12 10:52:57;;;;;;;8.75;4.43;;;;;;;;;;5057887;28;20044;-64
2024/03/12 10:55:24;;;;;;;6.45;3.67;;;;;;;;;;5062300;28;20048;-63
2024/03/12 10:57:54;;;;;;;7.93;3.45;;;;;;;;;;5063548;28;20044;-64
2024/03/12 11:00:25;;;;;;;6.35;3.28;;;;;;;;;;5065862;28;20144;-66
2024/03/12 11:02:53;;;;;;;7.95;3.35;;;;;;;;;;5069016;28;20052;-64
2024/03/12 11:05:27;;;;;;;9.65;3.90;;;;;;;;;;5070232;28;20126;-65
2024/03/12 11:07:56;;;;;;;10.48;3.90;;;;;;;;;;5065895;28;20437;-66
2024/03/12 11:10:28;;;;;;;9.57;4.38;;;;;;;;;;5063707;28;20044;-64
2024/03/12 11:12:55;;;;;;;7.50;3.53;;;;;;;;;;5062685;28;20048;-65
2024/03/12 11:15:22;;;;;;;10.40;4.13;;;;;;;;;;5061296;28;20040;-65
2024/03/12 11:17:50;;;;;;;10.00;4.15;;;;;;;;;;5063466;28;20044;-65
2024/03/12 11:20:22;;;;;;;10.27;4.15;;;;;;;;;;5062300;28;20397;-66
2024/03/12 11:22:57;;;;;;;8.35;3.72;;;;;;;;;;5065779;28;20430;-67
2024/03/12 11:25:32;;;;;;;7.70;3.58;;;;;;;;;;5068664;28;20517;-66
2024/03/12 11:28:20;;;;;;;10.88;4.28;;;;;;;;;;5067672;28;20512;-65
2024/03/12 11:30:48;;;;;;;10.23;4.47;;;;;;;;;;5097617;28;20047;-66
2024/03/12 11:33:37;;;;;;;11.00;4.20;;;;;;;;;;5067062;28;20049;-65
2024/03/12 11:36:03;;;;;;;12.40;4.00;;;;;;;;;;5065503;28;20044;-66
2024/03/12 11:38:29;;;;;;;12.50;5.32;;;;;;;;;;5065503;28;20376;-66
2024/03/12 11:40:56;;;;;;;14.32;5.15;;;;;;;;;;5072990;28;20035;-66
2024/03/12 11:43:40;;;;;;;12.40;4.72;;;;;;;;;;5075073;28;20441;-66
2024/03/12 11:46:08;;;;;;;11.15;5.53;;;;;;;;;;5075699;28;20045;-66
2024/03/12 11:48:34;;;;;;;11.38;4.70;;;;;;;;;;5070854;28;20509;-66
2024/03/12 11:51:03;;;;;;;12.43;4.55;;;;;;;;;;5072624;28;20032;-66
2024/03/12 11:53:32;;;;;;;12.82;4.60;;;;;;;;;;5068853;28;20040;-66
2024/03/12 11:56:10;;;;;;;11.00;4.88;;;;;;;;;;5064297;28;20043;-65
2024/03/12 11:58:44;;;;;;;10.70;4.60;;;;;;;;;;5077619;28;20383;-65
2024/03/12 12:01:16;;;;;;;9.15;4.22;;;;;;;;;;5070079;28;20294;-65
2024/03/12 12:03:43;;;;;;;9.35;4.85;;;;;;;;;;5073307;28;20032;-65
2024/03/12 12:06:10;;;;;;;10.52;4.82;;;;;;;;;;5099999;22;20055;-61
2024/03/12 12:08:37;;;;;;;8.40;4.35;;;;;;;;;;5080780;28;20055;-61
2024/03/12 12:11:09;;;;;;;8.65;4.40;;;;;;;;;;5075375;28;20125;-61
2024/03/12 12:13:37;;;;;;;10.13;4.22;;;;;;;;;;5079564;28;20043;-61
2024/03/12 12:16:04;;;;;;;6.88;3.67;;;;;;;;;;5086928;28;20040;-61
2024/03/12 12:18:33;;;;;;;8.57;4.18;;;;;;;;;;5081149;28;20052;-61
2024/03/12 12:21:20;;;;;;;7.57;3.80;;;;;;;;;;5089020;28;20039;-61
2024/03/12 12:23:47;;;;;;;7.80;4.15;;;;;;;;;;5086943;28;20040;-63
2024/03/12 12:26:18;;;;;;;11.38;4.63;;;;;;;;;;5088871;28;20054;-63
2024/03/12 12:28:46;;;;;;;8.82;4.50;;;;;;;;;;5077100;28;20045;-61
2024/03/12 12:31:19;;;;;;;7.43;3.65;;;;;;;;;;5079515;28;20051;-62
2024/03/12 12:33:51;;;;;;;5.53;3.00;;;;;;;;;;5060303;28;20040;-61
2024/03/12 12:36:25;;;;;;;8.48;3.58;;;;;;;;;;5076929;28;20035;-61
2024/03/12 12:38:55;;;;;;;9.70;4.63;;;;;;;;;;5077060;28;20048;-61
2024/03/12 12:41:24;;;;;;;;;;;;;;;;;;5077752;28;20036;-61
2024/03/12 12:43:53;;;;;;;7.73;4.07;;;;;;;;;;5078539;28;19935;-60
2024/03/12 12:46:27;;;;;;;7.20;4.20;;;;;;;;;;5079365;28;20490;-61
2024/03/12 12:48:53;;;;;;;8.82;4.88;;;;;;;;;;5085359;28;20047;-60
2024/03/12 12:51:25;;;;;;;9.23;3.90;;;;;;;;;;5077609;28;20063;-61
2024/03/12 12:53:55;;;;;;;7.25;2.72;;;;;;;;;;5078772;28;20052;-60
2024/03/12 12:56:22;;;;;;;9.45;4.15;;;;;;;;;;5078896;28;20041;-61
2024/03/12 12:58:50;;;;;;;8.00;3.40;;;;;;;;;;5094823;28;20024;-60
2024/03/12 13:01:23;;;;;;;8.70;3.90;;;;;;;;;;5077840;28;20028;-61
2024/03/12 13:03:53;;;;;;;9.63;3.88;;;;;;;;;;5076213;28;20044;-61
2024/03/12 13:06:22;;;;;;;9.73;3.80;;;;;;;;;;5077524;28;20043;-61
2024/03/12 13:08:52;;;;;;;;;;;;;;;;;;5060137;28;20063;-61
2024/03/12 13:11:20;;;;;;;;;;;;;;;;;;5078865;28;19999;-62
2024/03/12 13:13:53;;;;;;;11.35;4.68;;;;;;;;;;5075601;28;19912;-61
2024/03/12 13:16:22;;;;;;;12.93;5.50;;;;;;;;;;5075837;28;20034;-61
2024/03/12 13:18:49;;;;;;;;;;;;;;;;;;5076596;28;20048;-60
2024/03/12 13:21:21;;;;;;;10.50;4.57;;;;;;;;;;5076766;28;19913;-60
2024/03/12 13:23:49;;;;;;;10.15;4.05;;;;;;;;;;5077873;28;20040;-60
2024/03/12 13:26:18;;;;;;;9.93;4.35;;;;;;;;;;5080861;28;20043;-60
2024/03/12 13:28:48;;;;;;;9.88;4.65;;;;;;;;;;5078833;28;20059;-61
2024/03/12 13:31:15;;;;;;;9.50;4.10;;;;;;;;;;5072504;28;20048;-62
2024/03/12 13:33:41;;;;;;;10.98;4.72;;;;;;;;;;5093012;28;20048;-59
2024/03/12 13:36:12;;;;;;;10.60;4.70;;;;;;;;;;5072522;28;20036;-59
2024/03/12 13:38:39;;;;;;;12.15;5.28;;;;;;;;;;5080641;28;20044;-61
2024/03/12 13:41:07;;;;;;;13.95;5.65;;;;;;;;;;5077326;28;20028;-60
2024/03/12 13:43:33;;;;;;;12.80;5.50;;;;;;;;;;5077809;28;20452;-61
2024/03/12 13:45:59;;;;;;;15.98;6.45;;;;;;;;;;5078640;28;20028;-61
2024/03/12 13:48:27;;;;;;;15.23;6.28;;;;;;;;;;5076589;28;20417;-61
2024/03/12 13:50:56;;;;;;;15.13;5.97;;;;;;;;;;5078312;28;20056;-62
2024/03/12 13:53:23;;;;;;;20.23;6.57;;;;;;;;;;5080924;28;20037;-63
2024/03/12 13:55:49;;;;;;;13.68;5.95;;;;;;;;;;5073281;28;20043;-63
2024/03/12 13:58:15;;;;;;;13.80;5.78;;;;;;;;;;5072162;28;20044;-63
2024/03/12 14:00:42;;;;;;;16.42;6.07;;;;;;;;;;5071980;28;20036;-61
2024/03/12 14:03:09;;;;;;;16.15;6.95;;;;;;;;;;5077607;28;20033;-63
2024/03/12 14:05:36;;;;;;;18.48;7.50;;;;;;;;;;5075481;28;20063;-62
2024/03/12 14:08:02;;;;;;;17.45;6.78;;;;;;;;;;5073340;28;20052;-63
2024/03/12 14:10:29;;;;;;;17.27;7.18;;;;;;;;;;5089947;28;20051;-61
2024/03/12 14:12:55;;;;;;;19.40;7.18;;;;;;;;;;5075339;28;20052;-62
2024/03/12 14:15:22;;;;;;;20.55;7.57;;;;;;;;;;5076696;28;20413;-61
2024/03/12 14:17:48;;;;;;;19.83;7.43;;;;;;;;;;5074440;28;20405;-60
2024/03/12 14:20:15;;;;;;;17.65;7.35;;;;;;;;;;5072038;28;20036;-62
2024/03/12 14:22:44;;;;;;;20.58;6.88;;;;;;;;;;5071976;28;20053;-61
2024/03/12 14:25:11;;;;;;;20.95;8.32;;;;;;;;;;5082949;28;20048;-62
2024/03/12 14:27:38;;;;;;;21.05;8.32;;;;;;;;;;5078724;28;20047;-63
2024/03/12 14:30:09;;;;;;;18.45;7.82;;;;;;;;;;5096753;28;20028;-62
2024/03/12 14:32:36;;;;;;;19.25;7.80;;;;;;;;;;5076728;28;20059;-62
2024/03/12 14:35:04;;;;;;;24.98;9.13;;;;;;;;;;5081024;28;20046;-62
2024/03/12 14:37:32;;;;;;;26.35;9.15;;;;;;;;;;5076354;28;20043;-63
2024/03/12 14:40:01;;;;;;;22.65;9.32;;;;;;;;;;5076940;28;20036;-62
2024/03/12 14:42:30;;;;;;;23.33;8.88;;;;;;;;;;5073821;28;20060;-62
2024/03/12 14:44:56;;;;;;;23.48;9.65;;;;;;;;;;5076413;28;20042;-62
2024/03/12 14:47:23;;;;;;;23.95;9.35;;;;;;;;;;5074675;28;20051;-61
2024/03/12 14:49:49;;;;;;;25.25;9.35;;;;;;;;;;5073322;28;20049;-62
2024/03/12 14:52:15;;;;;;;26.70;10.35;;;;;;;;;;5075521;28;20051;-62
2024/03/12 14:54:41;;;;;;;30.25;11.18;;;;;;;;;;5074582;28;20044;-62
2024/03/12 14:57:07;;;;;;;27.00;10.00;;;;;;;;;;5072261;28;20032;-63
2024/03/12 14:59:34;;;;;;;29.23;10.57;;;;;;;;;;5070689;28;20950;-62